sensor_id;sensor_type;location;lat;lon;timestamp;temperature;humidity
18287;DHT22;9269;50.838;12.094;2023-12-07T00:00:57;5.30;70.90
18287;DHT22;9269;50.838;12.094;2023-12-07T00:03:27;5.30;70.90
18287;DHT22;9269;50.838;12.094;2023-12-07T00:05:55;5.40;70.90
18287;DHT22;9269;50.838;12.094;2023-12-07T00:08:24;5.10;70.80
18287;DHT22;9269;50.838;12.094;2023-12-07T00:10:52;5.30;70.80
18287;DHT22;9269;50.838;12.094;2023-12-07T00:13:22;5.10;70.70
18287;DHT22;9269;50.838;12.094;2023-12-07T00:15:50;5.40;70.80
18287;DHT22;9269;50.838;12.094;2023-12-07T00:18:19;5.20;70.90
18287;DHT22;9269;50.838;12.094;2023-12-07T00:20:47;5.20;70.80
18287;DHT22;9269;50.838;12.094;2023-12-07T00:23:16;5.10;70.90
18287;DHT22;9269;50.838;12.094;2023-12-07T00:25:46;5.20;70.90
18287;DHT22;9269;50.838;12.094;2023-12-07T00:28:15;5.20;70.80
18287;DHT22;9269;50.838;12.094;2023-12-07T00:30:45;5.20;70.80
18287;DHT22;9269;50.838;12.094;2023-12-07T00:33:13;5.20;71.00
18287;DHT22;9269;50.838;12.094;2023-12-07T00:35:44;5.30;70.90
18287;DHT22;9269;50.838;12.094;2023-12-07T00:38:12;5.20;70.90
18287;DHT22;9269;50.838;12.094;2023-12-07T00:40:40;5.20;70.80
18287;DHT22;9269;50.838;12.094;2023-12-07T00:43:09;5.20;70.90
18287;DHT22;9269;50.838;12.094;2023-12-07T00:45:37;5.00;71.00
18287;DHT22;9269;50.838;12.094;2023-12-07T00:48:07;5.00;71.00
18287;DHT22;9269;50.838;12.094;2023-12-07T00:50:35;5.10;70.80
18287;DHT22;9269;50.838;12.094;2023-12-07T00:53:04;5.10;70.70
18287;DHT22;9269;50.838;12.094;2023-12-07T00:55:32;5.10;64.40
18287;DHT22;9269;50.838;12.094;2023-12-07T00:58:01;5.20;70.90
18287;DHT22;9269;50.838;12.094;2023-12-07T01:00:30;5.30;70.90
18287;DHT22;9269;50.838;12.094;2023-12-07T01:02:59;4.90;70.80
18287;DHT22;9269;50.838;12.094;2023-12-07T01:05:30;5.10;70.90
18287;DHT22;9269;50.838;12.094;2023-12-07T01:07:58;5.10;70.70
18287;DHT22;9269;50.838;12.094;2023-12-07T01:10:27;5.10;70.90
18287;DHT22;9269;50.838;12.094;2023-12-07T01:12:55;4.90;71.00
18287;DHT22;9269;50.838;12.094;2023-12-07T01:15:24;5.20;70.80
18287;DHT22;9269;50.838;12.094;2023-12-07T01:17:52;5.10;70.90
18287;DHT22;9269;50.838;12.094;2023-12-07T01:20:21;5.10;70.90
18287;DHT22;9269;50.838;12.094;2023-12-07T01:22:51;5.00;70.80
18287;DHT22;9269;50.838;12.094;2023-12-07T01:25:19;5.00;70.80
18287;DHT22;9269;50.838;12.094;2023-12-07T01:27:49;5.10;70.90
18287;DHT22;9269;50.838;12.094;2023-12-07T01:30:18;5.20;70.90
18287;DHT22;9269;50.838;12.094;2023-12-07T01:32:46;5.00;71.00
18287;DHT22;9269;50.838;12.094;2023-12-07T01:35:15;5.20;71.00
18287;DHT22;9269;50.838;12.094;2023-12-07T01:37:43;5.20;71.00
18287;DHT22;9269;50.838;12.094;2023-12-07T01:40:13;5.00;71.00
18287;DHT22;9269;50.838;12.094;2023-12-07T01:42:49;5.10;70.90
18287;DHT22;9269;50.838;12.094;2023-12-07T01:45:18;5.10;70.90
18287;DHT22;9269;50.838;12.094;2023-12-07T01:47:47;5.10;71.00
18287;DHT22;9269;50.838;12.094;2023-12-07T01:50:18;5.10;71.10
18287;DHT22;9269;50.838;12.094;2023-12-07T01:52:54;5.10;71.00
18287;DHT22;9269;50.838;12.094;2023-12-07T01:55:25;5.30;70.80
18287;DHT22;9269;50.838;12.094;2023-12-07T01:57:54;5.20;70.90
18287;DHT22;9269;50.838;12.094;2023-12-07T02:00:23;5.10;70.90
18287;DHT22;9269;50.838;12.094;2023-12-07T02:02:53;5.10;70.90
18287;DHT22;9269;50.838;12.094;2023-12-07T02:05:22;5.20;70.90
18287;DHT22;9269;50.838;12.094;2023-12-07T02:07:51;5.10;71.00
18287;DHT22;9269;50.838;12.094;2023-12-07T02:10:20;5.10;71.00
18287;DHT22;9269;50.838;12.094;2023-12-07T02:12:50;5.20;71.10
18287;DHT22;9269;50.838;12.094;2023-12-07T02:15:20;5.10;71.00
18287;DHT22;9269;50.838;12.094;2023-12-07T02:17:54;5.10;71.00
18287;DHT22;9269;50.838;12.094;2023-12-07T02:20:29;5.00;71.10
18287;DHT22;9269;50.838;12.094;2023-12-07T02:23:01;5.10;70.90
18287;DHT22;9269;50.838;12.094;2023-12-07T02:25:35;5.20;71.10
18287;DHT22;9269;50.838;12.094;2023-12-07T02:28:05;5.20;71.10
18287;DHT22;9269;50.838;12.094;2023-12-07T02:30:33;5.00;70.90
18287;DHT22;9269;50.838;12.094;2023-12-07T02:33:01;5.10;71.10
18287;DHT22;9269;50.838;12.094;2023-12-07T02:35:31;5.20;71.00
18287;DHT22;9269;50.838;12.094;2023-12-07T02:38:00;5.20;71.10
18287;DHT22;9269;50.838;12.094;2023-12-07T02:40:30;5.20;71.00
18287;DHT22;9269;50.838;12.094;2023-12-07T02:43:00;5.20;71.00
18287;DHT22;9269;50.838;12.094;2023-12-07T02:45:31;5.20;71.10
18287;DHT22;9269;50.838;12.094;2023-12-07T02:48:00;5.10;71.20
18287;DHT22;9269;50.838;12.094;2023-12-07T02:50:29;5.10;71.00
18287;DHT22;9269;50.838;12.094;2023-12-07T02:52:58;5.10;71.00
18287;DHT22;9269;50.838;12.094;2023-12-07T02:55:26;5.20;71.10
18287;DHT22;9269;50.838;12.094;2023-12-07T02:57:54;5.20;71.00
18287;DHT22;9269;50.838;12.094;2023-12-07T03:00:23;5.00;71.10
18287;DHT22;9269;50.838;12.094;2023-12-07T03:02:53;5.20;71.10
18287;DHT22;9269;50.838;12.094;2023-12-07T03:05:21;5.30;71.10
18287;DHT22;9269;50.838;12.094;2023-12-07T03:07:50;5.00;71.00
18287;DHT22;9269;50.838;12.094;2023-12-07T03:10:18;5.20;71.00
18287;DHT22;9269;50.838;12.094;2023-12-07T03:12:47;5.10;71.10
18287;DHT22;9269;50.838;12.094;2023-12-07T03:15:15;5.20;71.00
18287;DHT22;9269;50.838;12.094;2023-12-07T03:17:44;5.20;71.10
18287;DHT22;9269;50.838;12.094;2023-12-07T03:20:14;5.10;71.30
18287;DHT22;9269;50.838;12.094;2023-12-07T03:22:42;5.10;71.10
18287;DHT22;9269;50.838;12.094;2023-12-07T03:25:11;5.10;71.00
18287;DHT22;9269;50.838;12.094;2023-12-07T03:27:41;5.20;71.20
18287;DHT22;9269;50.838;12.094;2023-12-07T03:30:10;5.20;71.10
18287;DHT22;9269;50.838;12.094;2023-12-07T03:32:39;5.20;71.10
18287;DHT22;9269;50.838;12.094;2023-12-07T03:35:08;5.20;71.20
18287;DHT22;9269;50.838;12.094;2023-12-07T03:37:37;5.30;71.10
18287;DHT22;9269;50.838;12.094;2023-12-07T03:40:07;5.30;71.00
18287;DHT22;9269;50.838;12.094;2023-12-07T03:42:36;5.20;71.00
18287;DHT22;9269;50.838;12.094;2023-12-07T03:45:22;5.10;71.10
18287;DHT22;9269;50.838;12.094;2023-12-07T03:47:51;5.20;71.10
18287;DHT22;9269;50.838;12.094;2023-12-07T03:50:19;5.40;71.10
18287;DHT22;9269;50.838;12.094;2023-12-07T03:52:49;5.20;70.90
18287;DHT22;9269;50.838;12.094;2023-12-07T03:55:18;5.30;71.00
18287;DHT22;9269;50.838;12.094;2023-12-07T03:57:46;5.40;71.00
18287;DHT22;9269;50.838;12.094;2023-12-07T04:00:16;5.20;71.20
18287;DHT22;9269;50.838;12.094;2023-12-07T04:02:45;5.40;71.10
18287;DHT22;9269;50.838;12.094;2023-12-07T04:05:13;5.30;71.00
18287;DHT22;9269;50.838;12.094;2023-12-07T04:07:42;5.50;71.00
18287;DHT22;9269;50.838;12.094;2023-12-07T04:10:12;5.20;71.10
18287;DHT22;9269;50.838;12.094;2023-12-07T04:12:40;5.30;71.10
18287;DHT22;9269;50.838;12.094;2023-12-07T04:15:09;5.30;71.10
18287;DHT22;9269;50.838;12.094;2023-12-07T04:17:38;5.30;70.90
18287;DHT22;9269;50.838;12.094;2023-12-07T04:20:08;5.30;71.00
18287;DHT22;9269;50.838;12.094;2023-12-07T04:22:37;5.30;71.00
18287;DHT22;9269;50.838;12.094;2023-12-07T04:25:06;5.10;71.10
18287;DHT22;9269;50.838;12.094;2023-12-07T04:27:36;5.20;70.90
18287;DHT22;9269;50.838;12.094;2023-12-07T04:30:06;5.30;71.20
18287;DHT22;9269;50.838;12.094;2023-12-07T04:32:34;5.30;71.10
18287;DHT22;9269;50.838;12.094;2023-12-07T04:35:03;5.30;71.00
18287;DHT22;9269;50.838;12.094;2023-12-07T04:37:34;5.20;71.30
18287;DHT22;9269;50.838;12.094;2023-12-07T04:40:03;5.10;71.10
18287;DHT22;9269;50.838;12.094;2023-12-07T04:42:32;5.20;71.00
18287;DHT22;9269;50.838;12.094;2023-12-07T04:45:03;5.10;71.10
18287;DHT22;9269;50.838;12.094;2023-12-07T04:47:32;5.10;71.00
18287;DHT22;9269;50.838;12.094;2023-12-07T04:50:01;5.30;71.10
18287;DHT22;9269;50.838;12.094;2023-12-07T04:52:30;5.20;71.00
18287;DHT22;9269;50.838;12.094;2023-12-07T04:54:59;5.20;70.90
18287;DHT22;9269;50.838;12.094;2023-12-07T04:57:28;5.20;71.00
18287;DHT22;9269;50.838;12.094;2023-12-07T04:59:57;5.30;71.00
18287;DHT22;9269;50.838;12.094;2023-12-07T05:02:26;5.10;71.00
18287;DHT22;9269;50.838;12.094;2023-12-07T05:04:55;5.40;71.20
18287;DHT22;9269;50.838;12.094;2023-12-07T05:07:23;5.00;71.00
18287;DHT22;9269;50.838;12.094;2023-12-07T05:09:52;5.10;71.00
18287;DHT22;9269;50.838;12.094;2023-12-07T05:12:20;5.10;71.00
18287;DHT22;9269;50.838;12.094;2023-12-07T05:14:49;5.30;71.00
18287;DHT22;9269;50.838;12.094;2023-12-07T05:17:18;5.10;71.00
18287;DHT22;9269;50.838;12.094;2023-12-07T05:19:48;5.00;71.00
18287;DHT22;9269;50.838;12.094;2023-12-07T05:22:16;5.10;70.90
18287;DHT22;9269;50.838;12.094;2023-12-07T05:24:45;5.20;71.00
18287;DHT22;9269;50.838;12.094;2023-12-07T05:27:14;5.20;70.90
18287;DHT22;9269;50.838;12.094;2023-12-07T05:29:43;5.20;70.90
18287;DHT22;9269;50.838;12.094;2023-12-07T05:32:14;5.30;70.80
18287;DHT22;9269;50.838;12.094;2023-12-07T05:34:42;5.30;70.90
18287;DHT22;9269;50.838;12.094;2023-12-07T05:37:13;5.30;71.00
18287;DHT22;9269;50.838;12.094;2023-12-07T05:39:42;5.20;70.70
18287;DHT22;9269;50.838;12.094;2023-12-07T05:42:11;5.30;70.90
18287;DHT22;9269;50.838;12.094;2023-12-07T05:44:39;5.30;70.90
18287;DHT22;9269;50.838;12.094;2023-12-07T05:47:08;5.30;71.00
18287;DHT22;9269;50.838;12.094;2023-12-07T05:49:45;5.10;70.80
18287;DHT22;9269;50.838;12.094;2023-12-07T05:52:15;5.20;70.90
18287;DHT22;9269;50.838;12.094;2023-12-07T05:54:44;5.20;70.90
18287;DHT22;9269;50.838;12.094;2023-12-07T05:57:14;5.40;70.80
18287;DHT22;9269;50.838;12.094;2023-12-07T05:59:42;5.40;70.80
18287;DHT22;9269;50.838;12.094;2023-12-07T06:02:11;5.20;71.00
18287;DHT22;9269;50.838;12.094;2023-12-07T06:04:40;5.20;70.90
18287;DHT22;9269;50.838;12.094;2023-12-07T06:07:09;5.40;71.00
18287;DHT22;9269;50.838;12.094;2023-12-07T06:09:41;5.30;70.90
18287;DHT22;9269;50.838;12.094;2023-12-07T06:12:12;5.30;70.80
18287;DHT22;9269;50.838;12.094;2023-12-07T06:14:40;5.20;70.80
18287;DHT22;9269;50.838;12.094;2023-12-07T06:17:09;5.20;70.70
18287;DHT22;9269;50.838;12.094;2023-12-07T06:19:37;5.30;70.90
18287;DHT22;9269;50.838;12.094;2023-12-07T06:22:06;5.20;64.20
18287;DHT22;9269;50.838;12.094;2023-12-07T06:24:34;5.20;70.80
18287;DHT22;9269;50.838;12.094;2023-12-07T06:27:04;5.20;70.80
18287;DHT22;9269;50.838;12.094;2023-12-07T06:29:33;5.20;70.80
18287;DHT22;9269;50.838;12.094;2023-12-07T06:32:03;5.20;70.80
18287;DHT22;9269;50.838;12.094;2023-12-07T06:34:31;5.30;70.80
18287;DHT22;9269;50.838;12.094;2023-12-07T06:37:00;5.00;70.80
18287;DHT22;9269;50.838;12.094;2023-12-07T06:39:28;5.30;70.70
18287;DHT22;9269;50.838;12.094;2023-12-07T06:41:57;5.10;70.80
18287;DHT22;9269;50.838;12.094;2023-12-07T06:44:28;5.20;70.80
18287;DHT22;9269;50.838;12.094;2023-12-07T06:46:57;5.20;70.90
18287;DHT22;9269;50.838;12.094;2023-12-07T06:49:26;5.00;70.90
18287;DHT22;9269;50.838;12.094;2023-12-07T06:52:14;5.30;64.40
18287;DHT22;9269;50.838;12.094;2023-12-07T06:54:43;5.40;70.70
18287;DHT22;9269;50.838;12.094;2023-12-07T06:57:12;5.30;64.50
18287;DHT22;9269;50.838;12.094;2023-12-07T06:59:46;5.30;64.50
18287;DHT22;9269;50.838;12.094;2023-12-07T07:02:16;5.40;64.40
18287;DHT22;9269;50.838;12.094;2023-12-07T07:04:44;5.30;64.50
18287;DHT22;9269;50.838;12.094;2023-12-07T07:07:16;5.30;64.20
18287;DHT22;9269;50.838;12.094;2023-12-07T07:09:46;5.20;64.30
18287;DHT22;9269;50.838;12.094;2023-12-07T07:12:14;5.20;64.40
18287;DHT22;9269;50.838;12.094;2023-12-07T07:14:43;5.30;70.70
18287;DHT22;9269;50.838;12.094;2023-12-07T07:17:13;5.30;70.70
18287;DHT22;9269;50.838;12.094;2023-12-07T07:19:41;5.30;70.80
18287;DHT22;9269;50.838;12.094;2023-12-07T07:22:10;5.40;70.70
18287;DHT22;9269;50.838;12.094;2023-12-07T07:24:38;5.20;70.80
18287;DHT22;9269;50.838;12.094;2023-12-07T07:27:07;5.40;70.80
18287;DHT22;9269;50.838;12.094;2023-12-07T07:29:36;5.30;64.40
18287;DHT22;9269;50.838;12.094;2023-12-07T07:32:06;5.30;70.80
18287;DHT22;9269;50.838;12.094;2023-12-07T07:34:36;5.40;64.20
18287;DHT22;9269;50.838;12.094;2023-12-07T07:37:05;5.30;70.70
18287;DHT22;9269;50.838;12.094;2023-12-07T07:39:35;5.20;70.70
18287;DHT22;9269;50.838;12.094;2023-12-07T07:42:04;5.40;64.40
18287;DHT22;9269;50.838;12.094;2023-12-07T07:44:33;5.20;70.70
18287;DHT22;9269;50.838;12.094;2023-12-07T07:47:02;5.10;70.70
18287;DHT22;9269;50.838;12.094;2023-12-07T07:49:31;5.30;70.80
18287;DHT22;9269;50.838;12.094;2023-12-07T07:52:02;5.10;70.70
18287;DHT22;9269;50.838;12.094;2023-12-07T07:54:32;5.30;70.70
18287;DHT22;9269;50.838;12.094;2023-12-07T07:57:00;5.30;70.70
18287;DHT22;9269;50.838;12.094;2023-12-07T07:59:29;5.30;70.70
18287;DHT22;9269;50.838;12.094;2023-12-07T08:01:58;5.20;70.80
18287;DHT22;9269;50.838;12.094;2023-12-07T08:04:27;5.20;64.40
18287;DHT22;9269;50.838;12.094;2023-12-07T08:06:55;5.20;64.40
18287;DHT22;9269;50.838;12.094;2023-12-07T08:09:25;5.00;70.70
18287;DHT22;9269;50.838;12.094;2023-12-07T08:11:54;5.30;64.40
18287;DHT22;9269;50.838;12.094;2023-12-07T08:14:22;5.20;70.80
18287;DHT22;9269;50.838;12.094;2023-12-07T08:16:51;5.00;70.70
18287;DHT22;9269;50.838;12.094;2023-12-07T08:19:20;5.30;70.80
18287;DHT22;9269;50.838;12.094;2023-12-07T08:21:50;5.00;70.70
18287;DHT22;9269;50.838;12.094;2023-12-07T08:24:19;5.30;64.40
18287;DHT22;9269;50.838;12.094;2023-12-07T08:26:50;5.00;70.70
18287;DHT22;9269;50.838;12.094;2023-12-07T08:29:18;5.30;70.70
18287;DHT22;9269;50.838;12.094;2023-12-07T08:31:47;5.20;70.80
18287;DHT22;9269;50.838;12.094;2023-12-07T08:34:15;5.10;70.80
18287;DHT22;9269;50.838;12.094;2023-12-07T08:36:46;5.20;70.70
18287;DHT22;9269;50.838;12.094;2023-12-07T08:39:14;5.30;70.70
18287;DHT22;9269;50.838;12.094;2023-12-07T08:41:43;5.30;70.80
18287;DHT22;9269;50.838;12.094;2023-12-07T08:44:14;5.30;64.40
18287;DHT22;9269;50.838;12.094;2023-12-07T08:46:43;5.30;64.40
18287;DHT22;9269;50.838;12.094;2023-12-07T08:49:12;5.10;70.90
18287;DHT22;9269;50.838;12.094;2023-12-07T08:51:44;5.40;70.70
18287;DHT22;9269;50.838;12.094;2023-12-07T08:54:33;5.10;70.70
18287;DHT22;9269;50.838;12.094;2023-12-07T08:57:03;5.30;70.70
18287;DHT22;9269;50.838;12.094;2023-12-07T08:59:33;5.30;64.50
18287;DHT22;9269;50.838;12.094;2023-12-07T09:02:01;5.20;64.50
18287;DHT22;9269;50.838;12.094;2023-12-07T09:04:30;5.30;64.40
18287;DHT22;9269;50.838;12.094;2023-12-07T09:06:59;5.20;64.40
18287;DHT22;9269;50.838;12.094;2023-12-07T09:09:28;5.20;70.80
18287;DHT22;9269;50.838;12.094;2023-12-07T09:11:56;5.30;70.90
18287;DHT22;9269;50.838;12.094;2023-12-07T09:14:24;5.20;64.40
18287;DHT22;9269;50.838;12.094;2023-12-07T09:16:55;5.30;64.40
18287;DHT22;9269;50.838;12.094;2023-12-07T09:19:23;5.30;70.70
18287;DHT22;9269;50.838;12.094;2023-12-07T09:21:52;5.20;64.40
18287;DHT22;9269;50.838;12.094;2023-12-07T09:24:20;5.30;64.30
18287;DHT22;9269;50.838;12.094;2023-12-07T09:26:49;5.40;70.90
18287;DHT22;9269;50.838;12.094;2023-12-07T09:29:17;5.30;70.80
18287;DHT22;9269;50.838;12.094;2023-12-07T09:31:46;5.30;70.80
18287;DHT22;9269;50.838;12.094;2023-12-07T09:34:17;5.30;64.40
18287;DHT22;9269;50.838;12.094;2023-12-07T09:36:46;5.20;64.50
18287;DHT22;9269;50.838;12.094;2023-12-07T09:39:15;5.20;70.80
18287;DHT22;9269;50.838;12.094;2023-12-07T09:41:44;5.10;70.80
18287;DHT22;9269;50.838;12.094;2023-12-07T09:44:14;5.40;70.80
18287;DHT22;9269;50.838;12.094;2023-12-07T09:46:42;5.30;70.80
18287;DHT22;9269;50.838;12.094;2023-12-07T09:49:11;5.40;70.70
18287;DHT22;9269;50.838;12.094;2023-12-07T09:51:42;5.30;70.70
18287;DHT22;9269;50.838;12.094;2023-12-07T09:54:13;5.30;70.90
18287;DHT22;9269;50.838;12.094;2023-12-07T09:56:43;5.20;64.50
18287;DHT22;9269;50.838;12.094;2023-12-07T09:59:12;5.50;70.80
18287;DHT22;9269;50.838;12.094;2023-12-07T10:01:41;5.40;70.90
18287;DHT22;9269;50.838;12.094;2023-12-07T10:04:17;5.40;70.80
18287;DHT22;9269;50.838;12.094;2023-12-07T10:06:48;5.40;70.90
18287;DHT22;9269;50.838;12.094;2023-12-07T10:09:17;5.30;71.00
18287;DHT22;9269;50.838;12.094;2023-12-07T10:12:02;5.30;70.90
18287;DHT22;9269;50.838;12.094;2023-12-07T10:14:31;5.40;70.90
18287;DHT22;9269;50.838;12.094;2023-12-07T10:17:00;5.30;71.00
18287;DHT22;9269;50.838;12.094;2023-12-07T10:19:29;5.30;70.80
18287;DHT22;9269;50.838;12.094;2023-12-07T10:22:14;5.30;71.00
18287;DHT22;9269;50.838;12.094;2023-12-07T10:24:50;5.20;71.00
18287;DHT22;9269;50.838;12.094;2023-12-07T10:27:29;5.20;71.00
18287;DHT22;9269;50.838;12.094;2023-12-07T10:29:59;5.20;71.10
18287;DHT22;9269;50.838;12.094;2023-12-07T10:32:30;5.50;71.00
18287;DHT22;9269;50.838;12.094;2023-12-07T10:35:04;5.40;71.00
18287;DHT22;9269;50.838;12.094;2023-12-07T10:37:36;5.30;71.20
18287;DHT22;9269;50.838;12.094;2023-12-07T10:40:23;5.40;71.20
18287;DHT22;9269;50.838;12.094;2023-12-07T10:42:57;5.50;71.10
18287;DHT22;9269;50.838;12.094;2023-12-07T10:45:36;5.60;71.10
18287;DHT22;9269;50.838;12.094;2023-12-07T10:48:10;5.50;71.10
18287;DHT22;9269;50.838;12.094;2023-12-07T10:50:49;5.60;71.20
18287;DHT22;9269;50.838;12.094;2023-12-07T10:53:38;5.60;71.20
18287;DHT22;9269;50.838;12.094;2023-12-07T10:56:28;5.60;71.30
18287;DHT22;9269;50.838;12.094;2023-12-07T10:58:59;5.70;71.20
18287;DHT22;9269;50.838;12.094;2023-12-07T11:01:30;5.50;71.30
18287;DHT22;9269;50.838;12.094;2023-12-07T11:04:20;5.60;71.20
18287;DHT22;9269;50.838;12.094;2023-12-07T11:06:57;5.50;71.30
18287;DHT22;9269;50.838;12.094;2023-12-07T11:09:53;5.70;71.20
18287;DHT22;9269;50.838;12.094;2023-12-07T11:12:42;5.60;71.30
18287;DHT22;9269;50.838;12.094;2023-12-07T11:15:16;5.60;71.30
18287;DHT22;9269;50.838;12.094;2023-12-07T11:17:50;5.70;71.30
18287;DHT22;9269;50.838;12.094;2023-12-07T11:20:31;5.90;71.40
18287;DHT22;9269;50.838;12.094;2023-12-07T11:23:11;5.50;71.30
18287;DHT22;9269;50.838;12.094;2023-12-07T11:25:52;5.70;71.20
18287;DHT22;9269;50.838;12.094;2023-12-07T11:28:34;5.90;71.30
18287;DHT22;9269;50.838;12.094;2023-12-07T11:31:05;5.60;71.30
18287;DHT22;9269;50.838;12.094;2023-12-07T11:33:38;5.70;71.40
18287;DHT22;9269;50.838;12.094;2023-12-07T11:36:16;5.80;71.10
18287;DHT22;9269;50.838;12.094;2023-12-07T11:39:16;5.80;71.10
18287;DHT22;9269;50.838;12.094;2023-12-07T11:42:06;5.80;71.20
18287;DHT22;9269;50.838;12.094;2023-12-07T11:44:38;5.70;71.20
18287;DHT22;9269;50.838;12.094;2023-12-07T11:47:09;5.80;71.20
18287;DHT22;9269;50.838;12.094;2023-12-07T11:49:50;5.70;71.20
18287;DHT22;9269;50.838;12.094;2023-12-07T11:52:23;5.60;71.00
18287;DHT22;9269;50.838;12.094;2023-12-07T11:55:01;5.80;71.20
18287;DHT22;9269;50.838;12.094;2023-12-07T11:57:34;5.90;71.10
18287;DHT22;9269;50.838;12.094;2023-12-07T12:00:22;5.80;71.10
18287;DHT22;9269;50.838;12.094;2023-12-07T12:02:57;5.70;70.90
18287;DHT22;9269;50.838;12.094;2023-12-07T12:05:45;5.80;71.00
18287;DHT22;9269;50.838;12.094;2023-12-07T12:08:34;5.70;71.10
18287;DHT22;9269;50.838;12.094;2023-12-07T12:11:22;5.80;71.00
18287;DHT22;9269;50.838;12.094;2023-12-07T12:13:57;5.80;71.00
18287;DHT22;9269;50.838;12.094;2023-12-07T12:16:25;5.80;70.80
18287;DHT22;9269;50.838;12.094;2023-12-07T12:18:58;5.80;70.90
18287;DHT22;9269;50.838;12.094;2023-12-07T12:21:28;5.80;70.80
18287;DHT22;9269;50.838;12.094;2023-12-07T12:24:13;5.60;70.80
18287;DHT22;9269;50.838;12.094;2023-12-07T12:26:55;5.80;70.80
18287;DHT22;9269;50.838;12.094;2023-12-07T12:29:36;5.80;70.70
18287;DHT22;9269;50.838;12.094;2023-12-07T12:32:14;5.70;70.70
18287;DHT22;9269;50.838;12.094;2023-12-07T12:34:51;5.70;70.80
18287;DHT22;9269;50.838;12.094;2023-12-07T12:37:24;5.80;70.70
18287;DHT22;9269;50.838;12.094;2023-12-07T12:39:55;5.90;70.70
18287;DHT22;9269;50.838;12.094;2023-12-07T12:42:46;5.80;64.20
18287;DHT22;9269;50.838;12.094;2023-12-07T12:45:28;5.90;70.80
18287;DHT22;9269;50.838;12.094;2023-12-07T12:48:08;5.70;64.40
18287;DHT22;9269;50.838;12.094;2023-12-07T12:50:41;5.70;64.00
18287;DHT22;9269;50.838;12.094;2023-12-07T12:53:17;5.80;64.40
18287;DHT22;9269;50.838;12.094;2023-12-07T12:55:55;5.80;64.20
18287;DHT22;9269;50.838;12.094;2023-12-07T12:58:44;5.80;64.50
18287;DHT22;9269;50.838;12.094;2023-12-07T13:01:18;5.70;64.30
18287;DHT22;9269;50.838;12.094;2023-12-07T13:03:53;5.90;64.30
18287;DHT22;9269;50.838;12.094;2023-12-07T13:06:39;5.80;64.30
18287;DHT22;9269;50.838;12.094;2023-12-07T13:09:09;5.70;64.20
18287;DHT22;9269;50.838;12.094;2023-12-07T13:11:39;5.60;64.10
18287;DHT22;9269;50.838;12.094;2023-12-07T13:14:13;5.60;63.90
18287;DHT22;9269;50.838;12.094;2023-12-07T13:16:43;5.90;64.40
18287;DHT22;9269;50.838;12.094;2023-12-07T13:19:16;5.70;64.10
18287;DHT22;9269;50.838;12.094;2023-12-07T13:21:50;5.80;64.10
18287;DHT22;9269;50.838;12.094;2023-12-07T13:24:24;5.70;63.90
18287;DHT22;9269;50.838;12.094;2023-12-07T13:27:00;5.80;64.00
18287;DHT22;9269;50.838;12.094;2023-12-07T13:29:44;5.70;64.10
18287;DHT22;9269;50.838;12.094;2023-12-07T13:32:15;5.70;64.10
18287;DHT22;9269;50.838;12.094;2023-12-07T13:34:46;5.70;64.10
18287;DHT22;9269;50.838;12.094;2023-12-07T13:37:35;5.90;64.10
18287;DHT22;9269;50.838;12.094;2023-12-07T13:40:05;5.70;64.10
18287;DHT22;9269;50.838;12.094;2023-12-07T13:42:38;5.80;63.90
18287;DHT22;9269;50.838;12.094;2023-12-07T13:45:12;5.70;63.80
18287;DHT22;9269;50.838;12.094;2023-12-07T13:47:45;5.90;63.90
18287;DHT22;9269;50.838;12.094;2023-12-07T13:50:25;5.90;63.90
18287;DHT22;9269;50.838;12.094;2023-12-07T13:53:02;5.80;63.60
18287;DHT22;9269;50.838;12.094;2023-12-07T13:55:39;5.80;64.00
18287;DHT22;9269;50.838;12.094;2023-12-07T13:58:09;5.60;64.00
18287;DHT22;9269;50.838;12.094;2023-12-07T14:00:40;5.80;64.00
18287;DHT22;9269;50.838;12.094;2023-12-07T14:03:33;5.70;63.90
18287;DHT22;9269;50.838;12.094;2023-12-07T14:06:03;5.80;63.70
18287;DHT22;9269;50.838;12.094;2023-12-07T14:08:49;5.80;63.70
18287;DHT22;9269;50.838;12.094;2023-12-07T14:11:19;5.70;63.70
18287;DHT22;9269;50.838;12.094;2023-12-07T14:13:52;5.90;63.60
18287;DHT22;9269;50.838;12.094;2023-12-07T14:16:33;5.60;63.80
18287;DHT22;9269;50.838;12.094;2023-12-07T14:19:25;5.80;63.50
18287;DHT22;9269;50.838;12.094;2023-12-07T14:22:15;5.60;63.60
18287;DHT22;9269;50.838;12.094;2023-12-07T14:25:05;5.90;63.40
18287;DHT22;9269;50.838;12.094;2023-12-07T14:27:40;5.80;63.90
18287;DHT22;9269;50.838;12.094;2023-12-07T14:30:11;5.90;63.50
18287;DHT22;9269;50.838;12.094;2023-12-07T14:32:42;5.70;63.50
18287;DHT22;9269;50.838;12.094;2023-12-07T14:35:20;5.70;63.90
18287;DHT22;9269;50.838;12.094;2023-12-07T14:37:56;5.70;63.70
18287;DHT22;9269;50.838;12.094;2023-12-07T14:40:36;5.90;63.70
18287;DHT22;9269;50.838;12.094;2023-12-07T14:43:17;5.80;63.40
18287;DHT22;9269;50.838;12.094;2023-12-07T14:45:51;5.80;63.80
18287;DHT22;9269;50.838;12.094;2023-12-07T14:48:25;5.70;63.40
18287;DHT22;9269;50.838;12.094;2023-12-07T14:50:56;5.70;63.60
18287;DHT22;9269;50.838;12.094;2023-12-07T14:53:26;5.50;63.40
18287;DHT22;9269;50.838;12.094;2023-12-07T14:56:14;5.80;63.50
18287;DHT22;9269;50.838;12.094;2023-12-07T14:58:50;5.80;63.80
18287;DHT22;9269;50.838;12.094;2023-12-07T15:01:26;5.50;63.20
18287;DHT22;9269;50.838;12.094;2023-12-07T15:03:59;5.70;63.30
18287;DHT22;9269;50.838;12.094;2023-12-07T15:06:41;5.70;63.40
18287;DHT22;9269;50.838;12.094;2023-12-07T15:09:20;5.70;63.10
18287;DHT22;9269;50.838;12.094;2023-12-07T15:12:08;5.70;63.30
18287;DHT22;9269;50.838;12.094;2023-12-07T15:14:45;5.60;62.90
18287;DHT22;9269;50.838;12.094;2023-12-07T15:17:14;5.80;62.90
18287;DHT22;9269;50.838;12.094;2023-12-07T15:19:49;5.60;63.30
18287;DHT22;9269;50.838;12.094;2023-12-07T15:22:19;5.80;63.20
18287;DHT22;9269;50.838;12.094;2023-12-07T15:24:59;5.70;63.10
18287;DHT22;9269;50.838;12.094;2023-12-07T15:27:28;5.60;63.30
18287;DHT22;9269;50.838;12.094;2023-12-07T15:29:59;5.70;63.10
18287;DHT22;9269;50.838;12.094;2023-12-07T15:32:34;5.60;63.00
18287;DHT22;9269;50.838;12.094;2023-12-07T15:35:23;5.70;63.10
18287;DHT22;9269;50.838;12.094;2023-12-07T15:37:54;5.80;63.30
18287;DHT22;9269;50.838;12.094;2023-12-07T15:40:26;5.70;63.30
18287;DHT22;9269;50.838;12.094;2023-12-07T15:43:07;5.50;62.90
18287;DHT22;9269;50.838;12.094;2023-12-07T15:45:55;5.60;63.20
18287;DHT22;9269;50.838;12.094;2023-12-07T15:48:27;5.70;62.90
18287;DHT22;9269;50.838;12.094;2023-12-07T15:51:10;5.70;63.00
18287;DHT22;9269;50.838;12.094;2023-12-07T15:53:59;5.70;62.70
18287;DHT22;9269;50.838;12.094;2023-12-07T15:56:31;5.50;62.80
18287;DHT22;9269;50.838;12.094;2023-12-07T15:59:19;5.60;62.90
18287;DHT22;9269;50.838;12.094;2023-12-07T16:01:50;5.60;63.30
18287;DHT22;9269;50.838;12.094;2023-12-07T16:04:23;5.50;63.20
18287;DHT22;9269;50.838;12.094;2023-12-07T16:07:02;5.50;62.70
18287;DHT22;9269;50.838;12.094;2023-12-07T16:09:46;5.50;62.70
18287;DHT22;9269;50.838;12.094;2023-12-07T16:12:17;5.60;63.20
18287;DHT22;9269;50.838;12.094;2023-12-07T16:14:56;5.50;63.10
18287;DHT22;9269;50.838;12.094;2023-12-07T16:17:25;5.50;63.10